Time;durP1;ratioP1;P1;durP2;ratioP2;P2;SDS_P1;SDS_P2;PMS_P1;PMS_P2;Temp;Humidity;BMP_temperature;BMP_pressure;BME280_temperature;BME280_humidity;BME280_pressure;Samples;Min_cycle;Max_cycle;Signal;HPM_P1;HPM_P2
2022/05/06 00:00:49;;;;;;;10.41;4.46;;;;;;;;;;351198;153;858951;-56
2022/05/06 00:01:51;;;;;;;11.61;6.14;;;;;;;;;;350985;153;866994;-55
2022/05/06 00:02:52;;;;;;;12.44;6.50;;;;;;;;;;351053;153;865328;-55
2022/05/06 00:03:54;;;;;;;15.84;6.84;;;;;;;;;;350992;153;858848;-56
2022/05/06 00:04:56;;;;;;;11.15;6.66;;;;;;;;;;351226;153;865732;-56
2022/05/06 00:05:57;;;;;;;13.51;6.34;;;;;;;;;;349167;153;859352;-56
2022/05/06 00:06:59;;;;;;;11.24;5.89;;;;;;;;;;344939;155;863357;-56
2022/05/06 00:08:00;;;;;;;13.27;6.28;;;;;;;;;;345142;153;864862;-56
2022/05/06 00:09:02;;;;;;;9.89;6.34;;;;;;;;;;344942;155;864931;-56
2022/05/06 00:10:06;;;;;;;11.97;6.16;;;;;;;;;;347584;153;857573;-56
2022/05/06 00:11:07;;;;;;;17.46;6.37;;;;;;;;;;351205;153;857180;-56
2022/05/06 00:12:10;;;;;;;11.01;5.87;;;;;;;;;;350955;153;859067;-57
2022/05/06 00:13:12;;;;;;;13.21;6.33;;;;;;;;;;346409;153;857828;-56
2022/05/06 00:23:49;;;;;;;3.93;2.09;;;;;;;5.72;53.99;100900.69;373676;142;869511;-56
2022/05/06 00:24:51;;;;;;;5.49;2.76;;;;;;;5.58;53.73;100902.86;359490;147;857261;-55
2022/05/06 00:25:53;;;;;;;2.71;2.38;;;;;;;5.53;53.76;100908.75;362401;147;859652;-56
2022/05/06 00:26:57;;;;;;;4.17;2.11;;;;;;;5.45;54.19;100910.23;359395;149;865373;-56
2022/05/06 00:27:58;;;;;;;3.91;2.33;;;;;;;5.36;54.07;100908.28;359597;147;858905;-56
2022/05/06 00:29:00;;;;;;;4.28;2.54;;;;;;;5.28;54.26;100909.72;359488;147;857581;-56
2022/05/06 00:30:02;;;;;;;9.98;5.74;;;;;;;;;;361987;147;857325;-56
2022/05/06 00:31:04;;;;;;;8.37;5.23;;;;;;;;;;366027;146;864985;-56
2022/05/06 00:32:06;;;;;;;10.53;5.11;;;;;;;;;;360392;146;867622;-56
2022/05/06 00:33:09;;;;;;;11.81;5.51;;;;;;;;;;359440;147;867356;-55
2022/05/06 00:34:11;;;;;;;9.75;5.41;;;;;;;;;;359235;150;858473;-55
2022/05/06 00:35:12;;;;;;;9.84;5.84;;;;;;;;;;359425;149;857189;-55
2022/05/06 00:36:15;;;;;;;7.97;5.69;;;;;;;;;;359401;150;859119;-55
2022/05/06 00:37:16;;;;;;;10.85;5.84;;;;;;;;;;361375;147;857351;-55
2022/05/06 00:38:18;;;;;;;10.59;6.21;;;;;;;;;;365989;147;858153;-56
2022/05/06 00:39:20;;;;;;;14.01;6.16;;;;;;;;;;366022;146;857266;-57
2022/05/06 00:40:22;;;;;;;10.12;5.90;;;;;;;;;;365932;147;862192;-56
2022/05/06 00:41:23;;;;;;;8.99;5.16;;;;;;;;;;365959;147;865982;-56
2022/05/06 00:42:25;;;;;;;10.94;5.46;;;;;;;;;;365604;147;865016;-56
2022/05/06 00:43:27;;;;;;;11.76;5.69;;;;;;;;;;365718;147;867188;-55
2022/05/06 00:44:29;;;;;;;10.30;5.71;;;;;;;;;;363764;147;858975;-56
2022/05/06 00:45:33;;;;;;;11.56;5.81;;;;;;;;;;362378;148;857407;-56
2022/05/06 00:46:38;;;;;;;8.52;5.16;;;;;;;;;;362325;148;858796;-57
2022/05/06 00:47:39;;;;;;;9.62;5.75;;;;;;;;;;362318;148;857321;-56
2022/05/06 00:48:44;;;;;;;10.76;4.63;;;;;;;;;;362678;146;857585;-56
2022/05/06 00:49:45;;;;;;;7.49;2.94;;;;;;;;;;363052;148;859005;-56
2022/05/06 00:50:47;;;;;;;4.49;2.91;;;;;;;;;;362432;148;858996;-56
2022/05/06 00:51:51;;;;;;;4.47;2.51;;;;;;;;;;362552;146;864818;-56
2022/05/06 00:52:53;;;;;;;5.48;2.56;;;;;;;;;;365483;146;857664;-55
2022/05/06 00:53:55;;;;;;;4.37;2.56;;;;;;;;;;366620;146;856330;-56
2022/05/06 00:54:57;;;;;;;3.50;2.76;;;;;;;;;;362556;146;857894;-56
2022/05/06 00:55:58;;;;;;;3.97;2.15;;;;;;;;;;362630;146;857678;-55
2022/05/06 00:57:00;;;;;;;5.21;3.04;;;;;;;;;;367025;145;858924;-55
2022/05/06 00:58:05;;;;;;;7.09;4.54;;;;;;;;;;366793;145;864950;-56
2022/05/06 00:59:06;;;;;;;11.32;5.49;;;;;;;;;;362497;146;857633;-56
2022/05/06 01:00:20;;;;;;;8.50;5.16;;;;;;;;;;362622;146;857622;-56
2022/05/06 01:01:22;;;;;;;9.94;5.36;;;;;;;;;;362332;148;857172;-56
2022/05/06 01:02:23;;;;;;;8.81;5.26;;;;;;;;;;362678;146;858854;-56
2022/05/06 01:03:25;;;;;;;10.03;5.87;;;;;;;;;;363494;146;857283;-56
2022/05/06 01:04:27;;;;;;;8.56;5.06;;;;;;;;;;362375;148;857595;-56
2022/05/06 01:05:28;;;;;;;10.70;5.00;;;;;;;;;;362447;148;860758;-56
2022/05/06 01:06:30;;;;;;;9.01;5.15;;;;;;;;;;362441;146;858973;-56
2022/05/06 01:07:31;;;;;;;7.78;5.04;;;;;;;;;;362455;148;867232;-56
2022/05/06 01:08:34;;;;;;;9.01;5.06;;;;;;;;;;362503;146;859019;-56
2022/05/06 01:09:35;;;;;;;10.85;4.67;;;;;;;;;;362432;148;865526;-56
2022/05/06 01:10:38;;;;;;;10.40;5.20;;;;;;;;;;362566;148;857393;-56
2022/05/06 01:11:39;;;;;;;8.81;5.27;;;;;;;;;;362629;146;857853;-56
2022/05/06 01:12:41;;;;;;;7.01;4.80;;;;;;;;;;363491;147;858677;-56
2022/05/06 01:13:44;;;;;;;7.10;4.80;;;;;;;;;;363434;148;858282;-56
2022/05/06 01:14:45;;;;;;;10.32;5.38;;;;;;;;;;363345;147;857868;-56
2022/05/06 01:15:48;;;;;;;12.24;5.06;;;;;;;;;;364202;146;857267;-55
2022/05/06 01:16:49;;;;;;;8.47;4.67;;;;;;;;;;367442;146;857236;-57
2022/05/06 01:17:51;;;;;;;4.88;3.08;;;;;;;;;;364240;146;865305;-56
2022/05/06 01:18:53;;;;;;;4.07;2.55;;;;;;;;;;362574;148;857296;-55
2022/05/06 01:19:54;;;;;;;3.21;2.15;;;;;;;;;;362646;146;857348;-56
2022/05/06 01:20:57;;;;;;;4.17;1.87;;;;;;;;;;362546;148;864778;-56
2022/05/06 01:21:58;;;;;;;7.17;2.71;;;;;;;;;;362672;146;864795;-56
2022/05/06 01:23:00;;;;;;;3.53;1.83;;;;;;;;;;362470;148;857198;-56
2022/05/06 01:24:02;;;;;;;4.50;2.26;;;;;;;;;;362934;145;857775;-55
2022/05/06 01:25:04;;;;;;;6.15;2.85;;;;;;;;;;363073;148;857221;-55
2022/05/06 01:26:06;;;;;;;4.40;2.62;;;;;;;;;;363681;148;858987;-56
2022/05/06 01:27:19;;;;;;;9.02;4.71;;;;;;;;;;363731;147;866012;-56
2022/05/06 01:28:21;;;;;;;10.43;4.67;;;;;;;;;;363564;145;858670;-56
2022/05/06 01:29:22;;;;;;;8.73;4.45;;;;;;;;;;363830;147;858195;-56
2022/05/06 01:30:29;;;;;;;8.53;4.63;;;;;;;;;;368564;145;857397;-55
2022/05/06 01:31:30;;;;;;;8.41;4.42;;;;;;;;;;369726;145;864371;-55
2022/05/06 01:32:32;;;;;;;8.19;4.79;;;;;;;;;;364129;145;857840;-55
2022/05/06 01:33:34;;;;;;;9.19;5.08;;;;;;;;;;363454;147;866561;-56
2022/05/06 01:34:36;;;;;;;7.31;4.46;;;;;;;;;;363235;145;859140;-56
2022/05/06 01:35:44;;;;;;;13.21;4.91;;;;;;;;;;363224;145;858222;-55
2022/05/06 01:36:46;;;;;;;11.10;4.77;;;;;;;;;;369733;145;857675;-56
2022/05/06 01:37:48;;;;;;;8.10;5.16;;;;;;;;;;365036;145;857633;-56
2022/05/06 01:38:50;;;;;;;9.37;4.35;;;;;;;;;;363698;147;864879;-56
2022/05/06 01:39:53;;;;;;;6.94;4.41;;;;;;;;;;363535;145;857624;-56
2022/05/06 01:40:56;;;;;;;7.22;4.47;;;;;;;;;;363350;148;856419;-57
2022/05/06 01:44:01;;;;;;;11.21;4.58;;;;;;;4.36;58.06;100903.50;374468;141;878902;-56
2022/05/06 01:45:06;;;;;;;9.81;4.52;;;;;;;4.24;58.28;100909.96;358919;149;860105;-56
2022/05/06 01:46:10;;;;;;;9.95;4.99;;;;;;;4.20;58.67;100913.20;353361;149;857215;-56
2022/05/06 01:47:17;;;;;;;2.93;2.50;;;;;;;4.21;58.24;100911.53;353842;150;857894;-56
2022/05/06 01:48:20;;;;;;;5.40;2.36;;;;;;;4.21;58.07;100917.52;359486;147;857567;-56
2022/05/06 01:49:22;;;;;;;3.59;2.28;;;;;;;4.18;57.73;100914.84;366050;147;860643;-56
2022/05/06 01:50:24;;;;;;;5.35;2.36;;;;;;;4.14;57.45;100915.56;365904;147;857543;-57
2022/05/06 01:51:26;;;;;;;3.13;1.93;;;;;;;4.05;57.56;100921.27;366040;147;859924;-56
2022/05/06 01:52:27;;;;;;;3.52;1.97;;;;;;;;;;362117;146;857258;-56
2022/05/06 01:53:29;;;;;;;2.79;2.08;;;;;;;;;;359342;149;864797;-56
2022/05/06 01:54:30;;;;;;;3.44;2.11;;;;;;;;;;359591;147;864594;-56
2022/05/06 01:55:32;;;;;;;3.74;2.22;;;;;;;;;;359403;149;857259;-56
2022/05/06 01:56:33;;;;;;;8.46;4.98;;;;;;;;;;359567;147;857255;-56
2022/05/06 01:57:36;;;;;;;6.28;4.12;;;;;;;;;;359418;149;857074;-56
2022/05/06 01:58:38;;;;;;;7.95;3.91;;;;;;;;;;360954;147;857161;-56
2022/05/06 01:59:39;;;;;;;9.44;4.75;;;;;;;;;;361140;146;857133;-56
2022/05/06 02:00:41;;;;;;;7.24;4.16;;;;;;;;;;359680;149;856487;-56
2022/05/06 02:05:18;;;;;;;6.74;4.04;;;;;;;3.56;59.16;100927.19;359204;150;859045;-56
2022/05/06 02:06:20;;;;;;;9.50;4.08;;;;;;;3.57;58.95;100923.81;359286;147;857189;-56
2022/05/06 02:07:21;;;;;;;10.85;4.50;;;;;;;3.56;59.01;100925.52;359440;149;857523;-56
2022/05/06 02:08:23;;;;;;;8.75;4.17;;;;;;;3.55;58.91;100923.77;359449;147;857363;-56
2022/05/06 02:09:25;;;;;;;6.76;4.21;;;;;;;;;;359323;150;866636;-57
2022/05/06 02:10:26;;;;;;;8.19;4.70;;;;;;;;;;359482;147;864867;-56
2022/05/06 02:11:28;;;;;;;6.40;3.81;;;;;;;;;;359358;150;859111;-56
2022/05/06 02:12:30;;;;;;;6.29;3.83;;;;;;;;;;359495;147;859631;-55
2022/05/06 02:13:33;;;;;;;8.57;4.36;;;;;;;;;;359393;149;857568;-55
2022/05/06 02:14:35;;;;;;;10.82;4.34;;;;;;;;;;359407;147;859618;-56
2022/05/06 02:15:38;;;;;;;6.54;3.93;;;;;;;;;;359535;147;858859;-55
2022/05/06 02:16:40;;;;;;;2.09;1.66;;;;;;;;;;359261;149;857638;-55
2022/05/06 02:17:41;;;;;;;6.55;2.81;;;;;;;;;;362120;147;866658;-55
2022/05/06 02:18:43;;;;;;;1.93;1.52;;;;;;;;;;359385;149;858595;-55
2022/05/06 02:19:45;;;;;;;3.49;2.13;;;;;;;;;;359520;147;859389;-57
2022/05/06 02:20:46;;;;;;;3.64;2.32;;;;;;;;;;359459;149;857926;-56
2022/05/06 02:21:49;;;;;;;1.66;1.51;;;;;;;;;;360452;147;864492;-56
2022/05/06 02:22:50;;;;;;;2.29;1.99;;;;;;;;;;365900;147;858138;-56
2022/05/06 02:23:52;;;;;;;1.91;1.61;;;;;;;;;;365903;147;857380;-55
2022/05/06 02:24:55;;;;;;;3.02;1.94;;;;;;;;;;365893;146;859835;-55
2022/05/06 02:25:56;;;;;;;3.03;2.05;;;;;;;;;;360843;147;864787;-56
2022/05/06 02:26:58;;;;;;;8.77;4.14;;;;;;;;;;359185;149;864689;-56
2022/05/06 02:28:00;;;;;;;7.53;4.06;;;;;;;;;;359237;147;864695;-57
2022/05/06 02:29:01;;;;;;;7.69;3.86;;;;;;;;;;359389;149;857520;-56
2022/05/06 02:34:04;;;;;;;8.26;3.47;;;;;;;;;;362706;147;856222;-56
2022/05/06 02:35:06;;;;;;;6.78;3.85;;;;;;;;;;359632;147;864606;-55
2022/05/06 02:36:08;;;;;;;6.81;3.98;;;;;;;;;;362362;147;858006;-55
2022/05/06 02:37:09;;;;;;;10.21;3.94;;;;;;;;;;365093;146;865120;-55
2022/05/06 02:38:11;;;;;;;11.14;3.91;;;;;;;;;;359104;150;857391;-55
2022/05/06 02:39:12;;;;;;;6.56;4.26;;;;;;;;;;359042;150;864784;-55
2022/05/06 02:40:15;;;;;;;7.46;3.96;;;;;;;;;;365207;147;857222;-56
2022/05/06 02:41:17;;;;;;;8.61;3.96;;;;;;;;;;365921;147;860979;-55
2022/05/06 02:42:19;;;;;;;8.29;4.03;;;;;;;;;;365879;146;860214;-57
2022/05/06 02:43:21;;;;;;;5.30;3.87;;;;;;;;;;366009;146;859893;-56
2022/05/06 02:44:22;;;;;;;6.04;3.72;;;;;;;;;;362529;146;857263;-56
2022/05/06 02:45:24;;;;;;;8.17;3.91;;;;;;;;;;359075;150;857435;-55
2022/05/06 02:46:26;;;;;;;6.91;3.74;;;;;;;;;;359054;150;864994;-55
2022/05/06 02:47:29;;;;;;;5.66;1.67;;;;;;;;;;359150;150;858660;-56
2022/05/06 02:48:30;;;;;;;6.65;2.61;;;;;;;;;;359445;146;864988;-57
2022/05/06 02:49:32;;;;;;;6.14;2.16;;;;;;;;;;362380;147;857766;-56
2022/05/06 02:50:33;;;;;;;2.96;1.58;;;;;;;;;;364730;146;859667;-56
2022/05/06 02:51:35;;;;;;;2.66;2.01;;;;;;;;;;359389;149;867835;-56
2022/05/06 02:52:36;;;;;;;3.71;1.94;;;;;;;;;;359638;147;859313;-55
2022/05/06 02:53:38;;;;;;;2.91;2.18;;;;;;;;;;360251;147;859403;-55
2022/05/06 02:54:40;;;;;;;2.25;1.45;;;;;;;;;;360953;144;864348;-58
2022/05/06 02:55:42;;;;;;;5.35;2.38;;;;;;;;;;359415;149;857284;-55
2022/05/06 02:56:43;;;;;;;3.81;2.31;;;;;;;;;;359380;149;857223;-55
2022/05/06 02:57:45;;;;;;;12.31;5.15;;;;;;;;;;359341;150;857213;-56
2022/05/06 02:58:47;;;;;;;10.99;4.59;;;;;;;;;;359400;149;857690;-56
2022/05/06 02:59:48;;;;;;;7.09;4.48;;;;;;;;;;361972;148;864950;-56
2022/05/06 03:00:50;;;;;;;7.91;5.22;;;;;;;;;;362208;148;857354;-55
2022/05/06 03:01:52;;;;;;;9.18;5.76;;;;;;;;;;362138;148;857301;-56
2022/05/06 03:02:55;;;;;;;11.04;5.85;;;;;;;;;;361983;148;858209;-56
2022/05/06 03:03:56;;;;;;;10.96;5.64;;;;;;;;;;362527;147;857440;-56
2022/05/06 03:04:58;;;;;;;9.04;5.41;;;;;;;;;;361591;149;856268;-56
2022/05/06 03:06:00;;;;;;;12.01;6.56;;;;;;;;;;361678;149;857327;-56
2022/05/06 03:07:04;;;;;;;13.43;7.98;;;;;;;;;;361805;149;859239;-56
2022/05/06 03:08:05;;;;;;;15.72;8.59;;;;;;;;;;361617;148;859414;-57
2022/05/06 03:09:07;;;;;;;15.13;8.65;;;;;;;;;;361716;149;859832;-56
2022/05/06 03:10:09;;;;;;;21.17;11.77;;;;;;;;;;361737;149;857630;-55
2022/05/06 03:11:11;;;;;;;25.56;12.29;;;;;;;;;;361771;149;857558;-55
2022/05/06 03:12:13;;;;;;;23.71;10.94;;;;;;;;;;360118;147;857290;-55
2022/05/06 03:13:14;;;;;;;15.10;8.78;;;;;;;;;;359832;149;857264;-56
2022/05/06 03:14:16;;;;;;;14.49;7.71;;;;;;;;;;364083;147;857220;-56
2022/05/06 03:15:17;;;;;;;21.04;9.91;;;;;;;;;;364275;148;857316;-56
2022/05/06 03:16:19;;;;;;;17.24;9.31;;;;;;;;;;364251;148;858955;-56
2022/05/06 03:17:20;;;;;;;16.84;9.81;;;;;;;;;;364184;148;865653;-55
2022/05/06 03:18:22;;;;;;;8.16;4.16;;;;;;;;;;364190;148;866621;-56
2022/05/06 03:19:23;;;;;;;11.36;5.41;;;;;;;;;;364207;148;858695;-56
2022/05/06 03:20:25;;;;;;;13.56;7.54;;;;;;;;;;364179;148;858878;-56
2022/05/06 03:21:27;;;;;;;18.69;8.39;;;;;;;;;;364151;148;868449;-56
2022/05/06 03:22:29;;;;;;;14.44;7.23;;;;;;;;;;363997;148;861374;-55
2022/05/06 03:23:30;;;;;;;11.61;7.20;;;;;;;;;;364080;148;859106;-55
2022/05/06 03:24:32;;;;;;;11.91;6.76;;;;;;;;;;357119;150;858949;-55
2022/05/06 03:25:33;;;;;;;13.55;6.86;;;;;;;;;;355806;149;859155;-56
2022/05/06 03:26:35;;;;;;;15.06;7.66;;;;;;;;;;365795;145;865907;-56
2022/05/06 03:28:57;;;;;;;29.21;14.47;;;;;;;;;;365751;147;863388;-55
2022/05/06 03:29:59;;;;;;;29.65;13.34;;;;;;;;;;361377;146;866863;-55
2022/05/06 03:31:01;;;;;;;25.49;11.96;;;;;;;;;;359695;149;864752;-55
2022/05/06 03:32:03;;;;;;;21.36;12.11;;;;;;;;;;359797;149;857169;-55
2022/05/06 03:33:08;;;;;;;22.42;11.43;;;;;;;;;;359728;149;857077;-55
2022/05/06 03:34:11;;;;;;;20.76;10.81;;;;;;;;;;359600;149;857288;-55
2022/05/06 03:35:13;;;;;;;22.09;11.39;;;;;;;;;;359802;149;857279;-55
2022/05/06 03:36:15;;;;;;;21.19;12.31;;;;;;;;;;359692;149;864775;-56
2022/05/06 03:37:16;;;;;;;12.63;7.91;;;;;;;;;;361291;147;857379;-58
2022/05/06 03:38:18;;;;;;;11.49;6.82;;;;;;;;;;366502;146;857411;-54
2022/05/06 03:39:19;;;;;;;12.31;6.38;;;;;;;;;;366409;146;859231;-58
2022/05/06 03:40:21;;;;;;;12.70;5.95;;;;;;;;;;359950;149;857855;-56
2022/05/06 03:41:22;;;;;;;11.29;5.89;;;;;;;;;;359885;149;866753;-56
2022/05/06 03:42:24;;;;;;;14.16;6.68;;;;;;;;;;359716;149;866095;-57
2022/05/06 03:43:27;;;;;;;10.56;4.91;;;;;;;;;;360357;147;861749;-56
2022/05/06 03:44:28;;;;;;;11.65;6.31;;;;;;;;;;362540;146;865019;-56
2022/05/06 03:45:30;;;;;;;11.61;5.45;;;;;;;;;;366260;145;859943;-55
2022/05/06 03:46:33;;;;;;;8.12;4.31;;;;;;;;;;366561;146;857305;-55
2022/05/06 03:47:37;;;;;;;8.09;4.89;;;;;;;;;;366807;147;863760;-55
2022/05/06 03:48:38;;;;;;;8.95;5.12;;;;;;;;;;366348;146;856103;-55
2022/05/06 03:49:40;;;;;;;3.56;1.47;;;;;;;;;;367443;146;863782;-55
2022/05/06 03:52:03;;;;;;;4.92;2.79;;;;;;;;;;366808;147;863645;-56
2022/05/06 03:53:06;;;;;;;6.28;2.58;;;;;;;;;;366759;147;856618;-56
2022/05/06 03:54:07;;;;;;;6.91;3.19;;;;;;;;;;362886;147;856034;-55
2022/05/06 03:55:09;;;;;;;2.42;1.88;;;;;;;;;;360274;147;856633;-55
2022/05/06 03:56:11;;;;;;;5.26;2.37;;;;;;;;;;360291;147;856117;-55
2022/05/06 03:57:12;;;;;;;3.96;2.54;;;;;;;;;;360263;147;863599;-55
2022/05/06 03:58:14;;;;;;;8.61;3.76;;;;;;;;;;360397;147;856068;-56
2022/05/06 03:59:16;;;;;;;7.01;3.73;;;;;;;;;;362522;147;863853;-58
2022/05/06 04:00:22;;;;;;;11.46;3.54;;;;;;;;;;362249;146;857025;-58
2022/05/06 04:01:24;;;;;;;6.68;3.47;;;;;;;;;;359962;149;856016;-56
2022/05/06 04:04:09;;;;;;;4.98;3.38;;;;;;;5.67;59.92;100968.24;376010;141;882072;-55
2022/05/06 04:05:11;;;;;;;7.71;3.63;;;;;;;5.67;59.83;100962.22;366058;147;858860;-56
2022/05/06 04:06:14;;;;;;;6.79;3.83;;;;;;;5.77;59.82;100965.93;366111;144;858057;-56
2022/05/06 04:07:16;;;;;;;7.55;3.60;;;;;;;5.88;59.36;100964.53;366051;147;857383;-56
2022/05/06 04:08:18;;;;;;;8.70;3.90;;;;;;;6.01;59.06;100973.50;370549;144;866303;-55
2022/05/06 04:09:21;;;;;;;7.00;3.96;;;;;;;6.11;58.76;100965.20;372925;144;866321;-56
2022/05/06 04:10:23;;;;;;;7.81;3.81;;;;;;;6.23;58.00;100963.78;367563;144;864846;-56
2022/05/06 04:11:25;;;;;;;5.94;3.57;;;;;;;6.36;56.77;100967.53;366050;147;858756;-56
2022/05/06 04:12:27;;;;;;;8.75;4.20;;;;;;;6.47;56.89;100963.56;365975;147;865522;-56
2022/05/06 04:13:29;;;;;;;7.96;4.59;;;;;;;6.61;57.36;100963.03;366063;147;857384;-56
2022/05/06 04:14:30;;;;;;;7.44;3.71;;;;;;;6.71;56.55;100968.42;366029;147;864213;-56
2022/05/06 04:15:33;;;;;;;10.15;4.23;;;;;;;6.83;55.81;100960.14;366035;147;866480;-56
2022/05/06 04:16:34;;;;;;;13.53;4.75;;;;;;;;;;365948;147;857184;-56
2022/05/06 04:17:36;;;;;;;7.27;4.08;;;;;;;;;;366065;147;858576;-57
2022/05/06 04:18:38;;;;;;;8.60;3.64;;;;;;;;;;366049;147;857683;-57
2022/05/06 04:23:29;;;;;;;3.32;1.85;;;;;;;;;;366019;147;864722;-56
2022/05/06 04:23:33;;;;;;;6.97;2.94;;;;;;;;;;365359;147;857453;-57
2022/05/06 04:24:35;;;;;;;4.04;2.13;;;;;;;;;;365761;147;857850;-55
2022/05/06 04:25:36;;;;;;;4.06;2.54;;;;;;;;;;365891;147;857002;-55
2022/05/06 04:26:38;;;;;;;3.64;2.61;;;;;;;;;;365963;146;857785;-56
2022/05/06 04:27:40;;;;;;;6.84;2.50;;;;;;;;;;365888;146;864674;-55
2022/05/06 04:28:43;;;;;;;8.14;4.27;;;;;;;;;;365917;147;858919;-55
2022/05/06 04:29:45;;;;;;;8.14;4.16;;;;;;;;;;365915;146;857148;-56
2022/05/06 04:30:46;;;;;;;6.93;3.61;;;;;;;;;;365963;146;857352;-56
2022/05/06 04:31:48;;;;;;;7.66;3.99;;;;;;;;;;368645;144;864929;-55
2022/05/06 04:32:49;;;;;;;8.63;3.45;;;;;;;;;;372818;144;857455;-56
2022/05/06 04:33:51;;;;;;;7.13;3.22;;;;;;;;;;372745;144;866073;-55
2022/05/06 04:34:52;;;;;;;6.35;3.09;;;;;;;;;;372860;144;859273;-55
2022/05/06 04:35:54;;;;;;;7.26;3.32;;;;;;;;;;372854;144;858617;-55
2022/05/06 04:36:56;;;;;;;5.34;3.07;;;;;;;;;;372701;144;857843;-56
2022/05/06 04:37:58;;;;;;;5.39;2.84;;;;;;;;;;366498;144;858730;-55
2022/05/06 04:38:59;;;;;;;10.01;2.77;;;;;;;;;;365896;147;857070;-56
2022/05/06 04:40:01;;;;;;;5.21;2.73;;;;;;;;;;365889;147;857147;-56
2022/05/06 04:41:02;;;;;;;6.79;3.04;;;;;;;;;;367617;144;857220;-55
2022/05/06 04:42:05;;;;;;;4.93;3.05;;;;;;;;;;372782;144;865021;-55
2022/05/06 04:43:07;;;;;;;6.14;2.96;;;;;;;;;;372728;144;857267;-56
2022/05/06 04:44:08;;;;;;;10.66;3.08;;;;;;;;;;371065;144;858851;-55
2022/05/06 04:45:10;;;;;;;14.79;3.61;;;;;;;;;;365896;147;858481;-55
2022/05/06 04:46:13;;;;;;;7.23;3.08;;;;;;;;;;365801;143;858913;-56
2022/05/06 04:59:34;;;;;;;6.19;2.86;;;;;;;9.64;47.33;100974.70;372488;142;880526;-57
2022/05/06 05:00:36;;;;;;;6.47;2.57;;;;;;;9.63;46.01;100985.89;359449;147;858848;-56
2022/05/06 05:01:39;;;;;;;4.03;2.11;;;;;;;9.70;45.02;100986.81;359114;149;858328;-57
2022/05/06 05:02:41;;;;;;;5.55;2.57;;;;;;;9.76;44.22;100982.60;355391;149;859626;-54
2022/05/06 05:03:43;;;;;;;5.93;2.44;;;;;;;9.85;44.20;100986.14;355831;149;866291;-56
2022/05/06 05:04:44;;;;;;;7.11;2.82;;;;;;;9.92;43.39;100981.05;357380;149;864815;-56
2022/05/06 05:05:47;;;;;;;3.56;2.16;;;;;;;9.99;42.28;100983.70;356919;149;866419;-55
2022/05/06 05:06:48;;;;;;;5.93;2.49;;;;;;;10.05;42.02;100988.94;355060;151;864871;-55
2022/05/06 05:07:51;;;;;;;6.83;2.36;;;;;;;10.10;41.79;100989.89;355291;149;857196;-55
2022/05/06 05:08:53;;;;;;;4.77;2.35;;;;;;;10.16;42.70;100991.66;355185;151;864758;-55
2022/05/06 05:09:54;;;;;;;5.84;2.48;;;;;;;10.26;43.51;100984.88;355333;149;857314;-57
2022/05/06 05:11:02;;;;;;;6.49;2.41;;;;;;;10.32;42.61;100984.94;355138;151;864936;-55
2022/05/06 05:12:00;;;;;;;4.22;2.39;;;;;;;10.39;42.62;100984.14;354681;149;859413;-55
2022/05/06 05:13:01;;;;;;;8.92;2.71;;;;;;;;;;355181;151;865486;-59
2022/05/06 05:14:06;;;;;;;5.16;2.36;;;;;;;;;;355251;149;864963;-56
2022/05/06 05:15:07;;;;;;;4.83;2.29;;;;;;;;;;354997;151;857554;-55
2022/05/06 05:16:10;;;;;;;6.25;2.32;;;;;;;;;;355170;149;866504;-56
2022/05/06 05:17:11;;;;;;;4.73;2.22;;;;;;;;;;358291;150;858555;-55
2022/05/06 05:18:12;;;;;;;5.45;1.63;;;;;;;;;;356963;149;857259;-55
2022/05/06 05:19:14;;;;;;;5.84;1.89;;;;;;;;;;352914;152;857397;-56
2022/05/06 05:20:16;;;;;;;4.65;1.88;;;;;;;;;;354429;149;857338;-56
2022/05/06 05:21:18;;;;;;;7.26;1.87;;;;;;;;;;355221;151;857377;-56
2022/05/06 05:22:20;;;;;;;3.99;1.85;;;;;;;;;;355406;149;857179;-55
2022/05/06 05:23:21;;;;;;;7.35;2.17;;;;;;;;;;356215;151;857380;-56
2022/05/06 05:24:23;;;;;;;4.76;1.61;;;;;;;;;;360180;149;864888;-56
2022/05/06 05:25:24;;;;;;;4.19;1.91;;;;;;;;;;360708;149;857254;-56
2022/05/06 05:26:26;;;;;;;5.57;2.17;;;;;;;;;;355598;149;857435;-55
2022/05/06 05:27:27;;;;;;;4.86;2.36;;;;;;;;;;355137;151;857280;-55
2022/05/06 05:28:29;;;;;;;6.41;2.24;;;;;;;;;;355194;149;857339;-58
2022/05/06 05:29:30;;;;;;;6.51;2.46;;;;;;;;;;355081;151;857383;-57
2022/05/06 05:30:34;;;;;;;3.79;2.19;;;;;;;;;;355292;149;859340;-55
2022/05/06 05:31:35;;;;;;;5.37;2.41;;;;;;;;;;354894;151;864794;-55
2022/05/06 05:32:37;;;;;;;5.31;2.73;;;;;;;;;;358020;149;858123;-56
2022/05/06 05:33:38;;;;;;;5.00;2.26;;;;;;;;;;357906;149;857612;-55
2022/05/06 05:34:42;;;;;;;4.71;2.08;;;;;;;;;;361578;148;857385;-55
2022/05/06 05:35:43;;;;;;;6.83;2.26;;;;;;;;;;360676;149;857308;-57
2022/05/06 05:36:45;;;;;;;9.63;2.57;;;;;;;;;;355073;151;857978;-56
2022/05/06 05:37:46;;;;;;;8.29;2.32;;;;;;;;;;357303;149;866747;-57
2022/05/06 05:38:48;;;;;;;5.88;2.19;;;;;;;;;;361635;148;857403;-56
2022/05/06 05:39:49;;;;;;;5.32;2.36;;;;;;;;;;359293;148;857268;-56
2022/05/06 05:40:51;;;;;;;5.11;2.41;;;;;;;;;;355031;151;857271;-56
2022/05/06 05:41:53;;;;;;;6.97;2.87;;;;;;;;;;355129;149;857781;-57
2022/05/06 05:42:55;;;;;;;5.27;2.13;;;;;;;;;;355087;151;857676;-58
2022/05/06 05:49:17;;;;;;;4.28;2.08;;;;;;;;;;360818;149;858800;-57
2022/05/06 05:50:18;;;;;;;6.63;2.69;;;;;;;;;;357207;149;858389;-57
2022/05/06 05:51:20;;;;;;;7.37;2.74;;;;;;;;;;355176;149;857197;-56
2022/05/06 05:52:21;;;;;;;5.40;1.84;;;;;;;;;;355252;149;859230;-57
2022/05/06 05:53:23;;;;;;;5.26;2.34;;;;;;;;;;355073;151;858297;-56
2022/05/06 05:54:25;;;;;;;6.75;2.05;;;;;;;;;;355463;149;859042;-56
2022/05/06 05:55:26;;;;;;;7.14;2.52;;;;;;;;;;355052;151;859175;-56
2022/05/06 05:56:28;;;;;;;5.37;2.84;;;;;;;;;;355827;149;865609;-57
2022/05/06 05:57:29;;;;;;;5.04;2.56;;;;;;;;;;361564;149;863820;-56
2022/05/06 05:58:31;;;;;;;6.33;2.35;;;;;;;;;;361179;149;858422;-56
2022/05/06 05:59:36;;;;;;;4.36;2.25;;;;;;;;;;359144;149;857412;-55
2022/05/06 06:00:37;;;;;;;4.34;2.19;;;;;;;;;;356539;149;857627;-55
2022/05/06 06:01:39;;;;;;;9.29;2.59;;;;;;;;;;361348;149;857640;-54
2022/05/06 06:02:41;;;;;;;4.85;2.33;;;;;;;;;;361692;149;859665;-54
2022/05/06 06:03:42;;;;;;;9.21;2.26;;;;;;;;;;361581;149;857184;-57
2022/05/06 06:04:44;;;;;;;10.16;2.56;;;;;;;;;;357331;148;857219;-56
2022/05/06 06:05:46;;;;;;;8.67;2.37;;;;;;;;;;356939;149;857268;-55
2022/05/06 06:06:48;;;;;;;6.11;2.32;;;;;;;;;;355238;151;857294;-55
2022/05/06 06:07:50;;;;;;;5.65;2.50;;;;;;;;;;355288;149;857364;-55
2022/05/06 06:08:51;;;;;;;4.97;2.06;;;;;;;;;;355265;151;857399;-56
2022/05/06 06:09:53;;;;;;;5.71;2.50;;;;;;;;;;356779;149;857162;-54
2022/05/06 06:10:54;;;;;;;4.41;2.14;;;;;;;;;;361621;149;857166;-55
2022/05/06 06:11:56;;;;;;;6.25;2.29;;;;;;;;;;361431;148;864787;-55
2022/05/06 06:12:58;;;;;;;5.78;2.06;;;;;;;;;;361694;149;856189;-56
2022/05/06 06:13:59;;;;;;;4.97;2.27;;;;;;;;;;361585;149;856297;-58
2022/05/06 06:15:01;;;;;;;4.81;1.83;;;;;;;;;;360155;148;857159;-55
2022/05/06 06:16:03;;;;;;;8.00;2.38;;;;;;;;;;357473;149;857128;-56
2022/05/06 06:17:04;;;;;;;6.56;1.79;;;;;;;;;;355107;151;866300;-56
2022/05/06 06:18:06;;;;;;;3.38;1.60;;;;;;;;;;356422;149;857109;-55
2022/05/06 06:19:08;;;;;;;3.89;1.77;;;;;;;;;;357847;150;857648;-59
2022/05/06 06:20:11;;;;;;;5.69;1.87;;;;;;;;;;356698;149;859886;-55
2022/05/06 06:21:12;;;;;;;3.23;1.62;;;;;;;;;;357964;142;860298;-54
2022/05/06 06:22:14;;;;;;;5.16;1.94;;;;;;;;;;370706;143;858542;-55
2022/05/06 06:23:15;;;;;;;4.17;1.69;;;;;;;;;;369806;145;857220;-55
2022/05/06 06:24:19;;;;;;;5.68;1.65;;;;;;;;;;369925;143;857217;-54
2022/05/06 06:25:20;;;;;;;4.19;1.47;;;;;;;;;;370125;144;857066;-56
2022/05/06 06:26:22;;;;;;;5.04;1.23;;;;;;;;;;370616;143;857861;-54
2022/05/06 06:27:25;;;;;;;3.37;1.29;;;;;;;;;;369789;145;857471;-54
2022/05/06 06:28:27;;;;;;;2.83;1.45;;;;;;;;;;369797;143;857323;-54
2022/05/06 06:29:29;;;;;;;4.94;1.76;;;;;;;;;;369785;145;864989;-54
2022/05/06 06:30:32;;;;;;;4.02;1.27;;;;;;;;;;369812;143;857320;-55
2022/05/06 06:31:33;;;;;;;5.23;1.85;;;;;;;;;;369729;145;858587;-54
2022/05/06 06:32:35;;;;;;;4.71;1.12;;;;;;;;;;369908;143;859404;-56
2022/05/06 06:33:39;;;;;;;1.56;1.06;;;;;;;;;;369703;143;859901;-56
2022/05/06 06:34:41;;;;;;;4.81;1.24;;;;;;;;;;376719;143;859792;-56
2022/05/06 06:35:42;;;;;;;5.20;1.77;;;;;;;;;;376230;143;859655;-54
2022/05/06 06:36:44;;;;;;;2.85;1.21;;;;;;;;;;369774;145;857231;-54